Terminal Aerodrome Forecast
Issued by NWS Newport/Morehead City, NC

Home | Current Version | Previous Version | Text Only | Print | Product List | Glossary On
Versions: 1 2 3 4 5 6 7 8 9 10 11 12 13
655
FTUS42 KMHX 202330
TAFEWN
TAF
KEWN 202330Z 2100/2124 21005KT P6SM FEW020 BKN200
     FM210900 23005KT P6SM SCT012 BKN025
     FM211300 21005KT P6SM SCT050 SCT250=

USA.gov is the U.S. government's official web portal to all federal, state and local government web resources and services.